Time;durP1;ratioP1;P1;durP2;ratioP2;P2;SDS_P1;SDS_P2;PMS_P1;PMS_P2;Temp;Humidity;BMP_temperature;BMP_pressure;BME280_temperature;BME280_humidity;BME280_pressure;Samples;Min_cycle;Max_cycle;Signal;HPM_P1;HPM_P2
2022/09/12 00:00:32;;;;;;;7.85;6.97;;;12.80;99.90;;;;;;4409605;27;10001402;-73
2022/09/12 00:02:58;;;;;;;10.35;8.07;;;12.80;99.90;;;;;;5125072;27;20220;-74
2022/09/12 00:05:25;;;;;;;10.70;8.10;;;12.70;99.90;;;;;;5135569;27;20418;-73
2022/09/12 00:07:51;;;;;;;9.25;7.90;;;12.70;99.90;;;;;;5109572;27;20115;-73
2022/09/12 00:10:16;;;;;;;9.15;7.95;;;12.70;99.90;;;;;;5127748;27;20791;-73
2022/09/12 00:12:42;;;;;;;11.63;7.85;;;12.60;99.90;;;;;;5136139;27;20010;-74
2022/09/12 00:15:09;;;;;;;10.10;8.18;;;12.60;99.90;;;;;;5138358;27;20034;-73
2022/09/12 00:17:36;;;;;;;11.98;8.75;;;12.60;99.90;;;;;;5129664;27;20505;-74
2022/09/12 00:20:04;;;;;;;10.13;8.27;;;12.60;99.90;;;;;;5132415;27;20088;-74
2022/09/12 00:22:30;;;;;;;8.25;7.30;;;12.70;99.90;;;;;;5133597;27;20042;-73
2022/09/12 00:24:55;;;;;;;9.30;7.63;;;12.70;99.90;;;;;;5108176;27;20027;-74
2022/09/12 00:27:21;;;;;;;9.75;7.90;;;12.70;99.90;;;;;;5139087;27;20428;-74
2022/09/12 00:29:46;;;;;;;9.15;7.93;;;12.70;99.90;;;;;;5126477;27;20019;-74
2022/09/12 00:32:12;;;;;;;9.63;7.75;;;12.70;99.90;;;;;;5119264;27;20111;-74
2022/09/12 00:34:38;;;;;;;8.18;7.38;;;12.60;99.90;;;;;;5128418;27;20018;-74
2022/09/12 00:37:03;;;;;;;10.90;8.00;;;12.60;99.90;;;;;;5142703;27;20035;-74
2022/09/12 00:39:29;;;;;;;9.98;8.35;;;12.60;99.90;;;;;;5121196;27;20471;-73
2022/09/12 00:41:54;;;;;;;9.77;8.07;;;12.60;99.90;;;;;;5120952;27;20473;-74
2022/09/12 00:44:20;;;;;;;11.18;9.38;;;12.60;99.90;;;;;;5126929;27;20027;-74
2022/09/12 00:47:15;;;;;;;10.68;8.73;;;12.60;99.90;;;;;;5115294;27;20100;-74
2022/09/12 00:49:50;;;;;;;8.98;8.05;;;12.60;99.90;;;;;;5122935;27;20010;-74
2022/09/12 00:52:26;;;;;;;11.48;8.60;;;12.50;99.90;;;;;;5121704;27;20027;-74
2022/09/12 00:55:13;;;;;;;11.27;8.48;;;12.50;99.90;;;;;;5119114;27;20039;-74
2022/09/12 00:58:11;;;;;;;8.80;7.85;;;12.60;99.90;;;;;;5106136;27;20284;-74
2022/09/12 01:00:37;;;;;;;8.50;6.85;;;12.60;99.90;;;;;;5124025;27;20027;-74
2022/09/12 01:03:12;;;;;;;10.00;7.15;;;12.60;99.90;;;;;;5118264;27;20084;-74
2022/09/12 01:05:43;;;;;;;9.02;6.70;;;12.50;99.90;;;;;;5116040;27;20041;-74
2022/09/12 01:08:10;;;;;;;8.43;7.43;;;12.50;99.90;;;;;;5121232;27;20037;-74
2022/09/12 01:10:37;;;;;;;9.25;7.40;;;12.50;99.90;;;;;;5120102;27;20035;-74
2022/09/12 01:13:06;;;;;;;10.32;8.00;;;12.40;99.90;;;;;;5108358;27;20487;-74
2022/09/12 01:15:33;;;;;;;11.07;7.75;;;12.40;99.90;;;;;;5123295;27;20394;-74
2022/09/12 01:18:17;;;;;;;9.32;7.57;;;12.30;99.90;;;;;;5129684;27;20027;-74
2022/09/12 01:21:07;;;;;;;12.75;9.32;;;12.30;99.90;;;;;;5119834;27;20431;-73
2022/09/12 01:23:44;;;;;;;10.82;9.57;;;12.30;99.90;;;;;;5114653;27;22469;-74
2022/09/12 01:26:41;;;;;;;14.75;11.02;;;12.20;99.90;;;;;;5131146;27;20030;-73
2022/09/12 01:29:23;;;;;;;11.63;10.00;;;12.20;99.90;;;;;;5128535;27;20257;-74
2022/09/12 01:32:00;;;;;;;13.25;10.80;;;12.10;99.90;;;;;;5111038;27;20113;-74
2022/09/12 01:34:48;;;;;;;12.23;9.90;;;12.10;99.90;;;;;;5125880;27;20028;-73
2022/09/12 01:37:24;;;;;;;16.17;10.80;;;12.10;99.90;;;;;;5124356;27;20055;-74
2022/09/12 01:40:02;;;;;;;14.75;11.63;;;12.00;99.90;;;;;;5140019;27;20046;-73
2022/09/12 01:42:47;;;;;;;11.95;9.70;;;12.00;99.90;;;;;;5126498;27;20037;-73
2022/09/12 01:45:27;;;;;;;15.65;11.48;;;11.90;99.90;;;;;;5126873;27;20039;-74
2022/09/12 01:48:38;;;;;;;15.65;12.20;;;11.90;99.90;;;;;;5123024;27;20028;-74
2022/09/12 01:51:11;;;;;;;17.33;12.93;;;12.00;99.90;;;;;;5108496;27;20043;-74
2022/09/12 01:54:00;;;;;;;19.65;13.57;;;12.10;99.90;;;;;;5107975;27;20170;-73
2022/09/12 01:56:31;;;;;;;16.13;12.20;;;12.10;99.90;;;;;;5113826;27;20030;-74
2022/09/12 01:59:01;;;;;;;13.60;10.77;;;12.10;99.90;;;;;;5127432;27;20019;-74
2022/09/12 02:01:30;;;;;;;13.75;11.23;;;12.10;99.90;;;;;;5133265;27;20255;-74
2022/09/12 02:04:07;;;;;;;13.98;10.82;;;12.00;99.90;;;;;;5132100;27;20487;-74
2022/09/12 02:06:46;;;;;;;13.23;10.93;;;12.00;99.90;;;;;;5117606;27;20023;-73
2022/09/12 02:09:28;;;;;;;18.90;13.10;;;12.00;99.90;;;;;;5120327;27;20532;-74
2022/09/12 02:11:57;;;;;;;14.88;12.73;;;12.00;99.90;;;;;;5126298;27;20057;-74
2022/09/12 02:14:29;;;;;;;14.00;12.02;;;12.00;99.90;;;;;;5133892;27;20053;-73
2022/09/12 02:17:04;;;;;;;12.63;11.32;;;12.00;99.90;;;;;;5120386;27;20075;-74
2022/09/12 02:19:35;;;;;;;14.75;11.52;;;12.00;99.90;;;;;;5128518;27;20081;-73
2022/09/12 02:22:03;;;;;;;12.38;11.13;;;11.90;99.90;;;;;;5107402;27;21183;-74
2022/09/12 02:24:36;;;;;;;14.40;11.82;;;11.90;99.90;;;;;;5119628;27;20023;-74
2022/09/12 02:27:20;;;;;;;;;;;11.90;99.90;;;;;;5111681;27;20486;-74
2022/09/12 02:29:46;;;;;;;11.63;10.48;;;11.80;99.90;;;;;;5112357;27;19918;-74
2022/09/12 02:32:40;;;;;;;13.57;9.70;;;11.80;99.90;;;;;;5109932;27;20024;-73
2022/09/12 02:35:17;;;;;;;9.30;8.40;;;11.80;99.90;;;;;;5114315;27;20072;-74
2022/09/12 02:38:09;;;;;;;8.98;7.97;;;11.70;99.90;;;;;;5120343;27;20034;-74
2022/09/12 02:40:35;;;;;;;12.18;8.55;;;11.60;99.90;;;;;;5131724;27;20039;-73
2022/09/12 02:43:03;;;;;;;10.80;8.55;;;11.60;99.90;;;;;;5114164;27;20031;-74
2022/09/12 02:45:32;;;;;;;9.15;8.25;;;11.60;99.90;;;;;;5116981;27;20423;-73
2022/09/12 02:48:07;;;;;;;8.55;7.75;;;11.60;99.90;;;;;;5140734;27;20105;-73
2022/09/12 02:50:33;;;;;;;8.00;7.20;;;11.60;99.90;;;;;;5117796;27;20240;-73
2022/09/12 02:53:03;;;;;;;7.97;7.28;;;11.60;99.90;;;;;;5113751;27;20027;-74
2022/09/12 02:55:31;;;;;;;8.02;6.35;;;11.60;99.90;;;;;;5119905;27;20269;-74
2022/09/12 02:57:58;;;;;;;10.73;7.53;;;11.60;99.90;;;;;;5111990;27;20483;-74
2022/09/12 03:00:24;;;;;;;8.27;7.40;;;11.60;99.90;;;;;;5130481;27;20086;-73
2022/09/12 03:03:11;;;;;;;8.38;6.80;;;11.60;99.90;;;;;;5123422;27;20548;-74
2022/09/12 03:05:56;;;;;;;7.03;6.30;;;11.50;99.90;;;;;;5119530;27;20028;-73
2022/09/12 03:08:31;;;;;;;7.28;6.57;;;11.50;99.90;;;;;;5105940;27;20241;-73
2022/09/12 03:11:18;;;;;;;6.85;6.25;;;11.50;99.90;;;;;;5111999;27;20031;-73
2022/09/12 03:14:07;;;;;;;6.97;6.38;;;11.60;99.90;;;;;;5113014;27;20055;-73
2022/09/12 03:16:50;;;;;;;7.25;6.43;;;11.60;99.90;;;;;;5116276;27;20114;-73
2022/09/12 03:19:33;;;;;;;6.68;6.07;;;11.60;99.90;;;;;;5120868;27;20506;-74
2022/09/12 03:22:29;;;;;;;6.72;5.90;;;11.60;99.90;;;;;;5129788;27;20035;-74
2022/09/12 03:25:20;;;;;;;8.63;7.18;;;11.60;99.90;;;;;;5108103;27;20038;-74
2022/09/12 03:28:09;;;;;;;8.60;7.80;;;11.60;99.90;;;;;;5123146;27;20031;-74
2022/09/12 03:30:40;;;;;;;7.80;7.10;;;11.60;99.90;;;;;;5116124;27;20434;-74
2022/09/12 03:33:09;;;;;;;10.02;7.10;;;11.70;99.90;;;;;;5110585;27;20042;-74
2022/09/12 03:35:35;;;;;;;7.10;6.43;;;11.70;99.90;;;;;;5109281;27;20089;-74
2022/09/12 03:38:00;;;;;;;7.63;6.53;;;11.60;99.90;;;;;;5124007;27;20031;-74
2022/09/12 03:40:26;;;;;;;6.60;6.05;;;11.60;99.90;;;;;;5112138;27;20036;-74
2022/09/12 03:42:52;;;;;;;7.40;6.38;;;11.60;99.90;;;;;;5109851;27;20023;-73
2022/09/12 03:45:18;;;;;;;12.82;6.60;;;11.50;99.90;;;;;;5105810;27;20032;-73
2022/09/12 03:47:43;;;;;;;7.90;6.05;;;11.50;99.90;;;;;;5103497;27;20054;-74
2022/09/12 03:50:09;;;;;;;10.75;6.50;;;11.50;99.90;;;;;;5112104;27;20020;-74
2022/09/12 03:52:34;;;;;;;11.05;7.43;;;11.50;99.90;;;;;;5121198;27;20450;-74
2022/09/12 03:55:00;;;;;;;7.57;6.88;;;11.50;99.90;;;;;;5113391;27;20655;-74
2022/09/12 03:57:25;;;;;;;9.55;7.07;;;11.50;99.90;;;;;;5120335;27;20114;-74
2022/09/12 03:59:51;;;;;;;8.25;7.55;;;11.50;99.90;;;;;;5095267;27;20031;-74
2022/09/12 04:02:17;;;;;;;8.90;8.07;;;11.50;99.90;;;;;;5102980;27;20080;-74
2022/09/12 04:04:43;;;;;;;10.07;7.80;;;11.40;99.90;;;;;;5102139;27;20459;-74
2022/09/12 04:07:09;;;;;;;10.90;7.30;;;11.50;99.90;;;;;;5106270;27;20035;-74
2022/09/12 04:09:35;;;;;;;13.90;7.45;;;11.50;99.90;;;;;;5082231;27;20487;-73
2022/09/12 04:12:01;;;;;;;6.97;6.38;;;11.50;99.90;;;;;;5093401;27;20031;-73
2022/09/12 04:14:26;;;;;;;9.60;6.20;;;11.40;99.90;;;;;;5116867;27;20027;-74
2022/09/12 04:16:52;;;;;;;6.55;5.95;;;11.30;99.90;;;;;;5119443;27;20118;-74
2022/09/12 04:19:18;;;;;;;5.78;5.28;;;11.30;99.90;;;;;;5123929;27;20038;-74
2022/09/12 04:21:43;;;;;;;5.95;5.45;;;11.30;99.90;;;;;;5096914;27;20408;-74
2022/09/12 04:24:09;;;;;;;5.97;5.47;;;11.40;99.90;;;;;;5120136;27;20041;-74
2022/09/12 04:26:34;;;;;;;6.20;5.70;;;11.40;99.90;;;;;;5098179;27;20596;-74
2022/09/12 04:29:00;;;;;;;5.25;4.85;;;11.40;99.90;;;;;;5102804;27;20026;-74
2022/09/12 04:31:26;;;;;;;6.18;5.68;;;11.40;99.90;;;;;;5099540;27;20059;-74
2022/09/12 04:33:56;;;;;;;6.15;5.60;;;11.40;99.90;;;;;;5111036;27;20267;-74
2022/09/12 04:36:23;;;;;;;9.43;6.22;;;11.40;99.90;;;;;;5103868;27;20113;-74
2022/09/12 04:38:49;;;;;;;6.82;6.18;;;11.40;99.90;;;;;;5092934;28;20094;-74
2022/09/12 04:41:26;;;;;;;6.72;6.03;;;11.50;99.90;;;;;;5108468;27;20036;-74
2022/09/12 04:43:54;;;;;;;5.63;4.97;;;11.50;99.90;;;;;;5100665;27;20043;-74
2022/09/12 04:46:20;;;;;;;7.75;4.57;;;11.60;99.90;;;;;;5099564;27;20035;-74
2022/09/12 04:48:46;;;;;;;4.85;4.45;;;11.60;99.90;;;;;;5095384;27;20035;-74
2022/09/12 04:51:13;;;;;;;5.70;5.20;;;11.50;99.90;;;;;;5104231;27;20019;-73
2022/09/12 04:53:39;;;;;;;5.70;5.13;;;11.50;99.90;;;;;;5110781;27;20530;-74
2022/09/12 04:56:08;;;;;;;5.65;5.15;;;11.50;99.90;;;;;;5102986;27;20101;-74
2022/09/12 04:58:35;;;;;;;5.93;5.25;;;11.50;99.90;;;;;;5111693;27;20023;-73
2022/09/12 05:01:18;;;;;;;5.45;4.95;;;11.50;99.90;;;;;;5117294;27;20487;-73
2022/09/12 05:03:45;;;;;;;5.25;4.85;;;11.50;99.90;;;;;;5109912;27;20412;-73
2022/09/12 05:06:23;;;;;;;5.20;4.38;;;11.50;99.90;;;;;;5096884;28;20510;-74
2022/09/12 05:08:50;;;;;;;6.70;4.65;;;11.40;99.90;;;;;;5110725;27;20372;-74
2022/09/12 05:11:22;;;;;;;4.57;4.18;;;11.50;99.90;;;;;;5119711;27;20057;-74
2022/09/12 05:13:47;;;;;;;5.50;4.10;;;11.50;99.90;;;;;;5101097;27;20034;-74
2022/09/12 05:16:15;;;;;;;5.60;5.20;;;11.40;99.90;;;;;;5115855;27;20027;-74
2022/09/12 05:18:43;;;;;;;27.20;4.95;;;11.40;99.90;;;;;;5098666;27;20047;-73
2022/09/12 05:21:10;;;;;;;6.28;4.32;;;11.40;99.90;;;;;;5114014;27;20091;-74
2022/09/12 05:23:36;;;;;;;36.08;4.90;;;11.40;99.90;;;;;;5103861;27;20031;-73
2022/09/12 05:26:03;;;;;;;4.10;3.80;;;11.40;99.90;;;;;;5118140;27;20031;-74
2022/09/12 05:28:32;;;;;;;15.13;4.00;;;11.40;99.90;;;;;;5112009;27;20028;-73
2022/09/12 05:31:11;;;;;;;6.32;4.35;;;11.40;99.90;;;;;;5096186;28;20077;-73
2022/09/12 05:33:38;;;;;;;4.18;3.88;;;11.40;99.90;;;;;;5091587;28;20038;-73
2022/09/12 05:36:06;;;;;;;5.03;4.60;;;11.30;99.90;;;;;;5103656;27;20027;-74
2022/09/12 05:38:34;;;;;;;4.28;3.97;;;11.30;99.90;;;;;;5117179;27;20019;-74
2022/09/12 05:41:12;;;;;;;8.65;4.38;;;11.40;99.90;;;;;;5102826;27;20473;-74
2022/09/12 05:43:40;;;;;;;4.95;4.53;;;11.40;99.90;;;;;;5092059;27;20043;-73
2022/09/12 05:46:08;;;;;;;4.90;4.50;;;11.50;99.90;;;;;;5116928;27;20020;-74
2022/09/12 05:48:36;;;;;;;5.82;4.72;;;11.40;99.90;;;;;;5115672;27;20272;-73
2022/09/12 05:51:05;;;;;;;5.20;4.72;;;11.40;99.90;;;;;;5124491;27;20019;-74
2022/09/12 05:53:31;;;;;;;4.65;4.30;;;11.30;99.90;;;;;;5100345;27;20464;-73
2022/09/12 05:56:05;;;;;;;5.15;4.65;;;11.40;99.90;;;;;;5086268;27;20550;-73
2022/09/12 05:58:32;;;;;;;4.68;4.28;;;11.40;99.90;;;;;;5104829;27;20035;-73
2022/09/12 06:01:06;;;;;;;5.28;4.78;;;11.50;99.90;;;;;;5112823;27;20102;-74
2022/09/12 06:03:39;;;;;;;5.15;4.65;;;11.50;99.90;;;;;;5096848;27;20479;-74
2022/09/12 06:06:05;;;;;;;4.45;4.05;;;11.50;99.90;;;;;;5104654;27;20108;-73
2022/09/12 06:08:35;;;;;;;10.23;6.43;;;11.50;99.90;;;;;;5108040;27;20020;-74
2022/09/12 06:11:02;;;;;;;9.38;5.63;;;11.60;99.90;;;;;;5092913;27;20039;-74
2022/09/12 06:13:31;;;;;;;5.53;4.65;;;11.60;99.90;;;;;;5085370;27;20032;-73
2022/09/12 06:16:02;;;;;;;5.20;4.55;;;11.60;99.90;;;;;;5107463;27;20495;-73
2022/09/12 06:18:28;;;;;;;5.10;4.70;;;11.60;99.90;;;;;;5099802;27;20105;-73
2022/09/12 06:20:53;;;;;;;5.57;5.07;;;11.60;99.90;;;;;;5107765;27;20145;-73
2022/09/12 06:23:19;;;;;;;5.40;4.90;;;11.70;99.90;;;;;;5088589;27;21546;-74
2022/09/12 06:25:47;;;;;;;4.40;4.05;;;11.80;99.90;;;;;;5085380;27;20028;-74
2022/09/12 06:28:12;;;;;;;4.60;4.20;;;11.80;99.90;;;;;;5098838;27;20420;-73
2022/09/12 06:30:38;;;;;;;4.88;4.47;;;11.90;99.90;;;;;;5102224;27;20065;-74
2022/09/12 06:33:03;;;;;;;5.68;5.18;;;12.00;99.90;;;;;;5104637;27;20020;-73
2022/09/12 06:35:29;;;;;;;12.18;4.38;;;12.00;99.90;;;;;;5094919;27;20027;-74
2022/09/12 06:37:54;;;;;;;4.15;3.80;;;12.20;99.90;;;;;;5104831;27;20046;-75
2022/09/12 06:40:20;;;;;;;4.53;4.13;;;12.10;99.90;;;;;;5104355;27;20063;-75
2022/09/12 06:42:45;;;;;;;4.50;4.10;;;12.20;99.90;;;;;;5097005;27;20479;-75
2022/09/12 06:45:11;;;;;;;10.27;4.40;;;12.40;99.90;;;;;;5099394;27;20024;-74
2022/09/12 06:47:37;;;;;;;4.70;4.30;;;12.50;99.90;;;;;;5100757;27;20024;-75
2022/09/12 06:50:03;;;;;;;4.20;3.90;;;12.50;99.90;;;;;;5095539;28;20055;-75
2022/09/12 06:52:29;;;;;;;9.48;4.07;;;12.60;99.90;;;;;;5100536;27;20032;-75
2022/09/12 06:54:54;;;;;;;4.65;4.25;;;12.60;99.90;;;;;;5099159;27;20542;-75
2022/09/12 06:57:20;;;;;;;3.78;3.47;;;12.60;99.90;;;;;;5112021;27;20371;-74
2022/09/12 06:59:45;;;;;;;4.28;3.88;;;12.60;99.90;;;;;;5099702;27;20043;-75
2022/09/12 07:02:11;;;;;;;4.40;3.70;;;12.70;99.90;;;;;;5097070;27;20032;-75
2022/09/12 07:04:36;;;;;;;4.90;4.50;;;12.60;99.90;;;;;;5093414;27;20016;-75
2022/09/12 07:07:02;;;;;;;4.50;4.10;;;12.70;99.90;;;;;;5088547;28;20028;-75
2022/09/12 07:09:29;;;;;;;5.65;4.10;;;12.70;99.90;;;;;;5103303;27;20085;-75
2022/09/12 07:11:55;;;;;;;10.57;4.28;;;12.80;99.90;;;;;;5106800;27;20055;-75
2022/09/12 07:14:20;;;;;;;5.05;4.55;;;12.90;99.90;;;;;;5108024;28;20047;-75
2022/09/12 07:16:46;;;;;;;10.73;4.22;;;12.90;99.90;;;;;;5096493;27;20316;-76
2022/09/12 07:19:12;;;;;;;4.60;4.20;;;12.90;99.90;;;;;;5095777;27;20031;-76
2022/09/12 07:21:40;;;;;;;4.80;4.40;;;13.00;99.90;;;;;;5117198;27;20031;-76
2022/09/12 07:24:07;;;;;;;5.72;3.97;;;13.00;99.90;;;;;;5100639;28;20032;-75
2022/09/12 07:26:33;;;;;;;9.65;4.10;;;13.20;99.90;;;;;;5096857;27;20093;-75
2022/09/12 07:28:58;;;;;;;4.72;4.32;;;13.30;99.90;;;;;;5100696;27;20418;-75
2022/09/12 07:31:26;;;;;;;4.00;3.70;;;13.40;99.90;;;;;;5096669;27;20384;-75
2022/09/12 07:33:52;;;;;;;4.85;4.38;;;13.40;99.90;;;;;;5091830;27;20134;-76
2022/09/12 07:36:20;;;;;;;4.70;4.30;;;13.50;99.90;;;;;;5087168;28;20115;-75
2022/09/12 07:38:46;;;;;;;9.30;4.40;;;13.50;99.90;;;;;;5110092;27;20391;-75
2022/09/12 07:41:14;;;;;;;5.63;4.80;;;13.60;99.90;;;;;;5103378;27;20040;-75
2022/09/12 07:43:40;;;;;;;5.97;4.93;;;13.60;99.90;;;;;;5121509;27;20035;-75
2022/09/12 07:46:06;;;;;;;5.68;5.18;;;13.70;99.90;;;;;;5111830;27;20024;-75
2022/09/12 07:48:32;;;;;;;5.88;5.13;;;13.90;99.90;;;;;;5125952;27;20058;-75
2022/09/12 07:51:03;;;;;;;5.45;4.95;;;14.00;99.90;;;;;;5129670;27;20525;-75
2022/09/12 07:53:33;;;;;;;5.28;4.78;;;14.00;99.90;;;;;;5110504;27;20032;-74
2022/09/12 07:56:01;;;;;;;5.88;5.30;;;14.00;99.90;;;;;;5118628;27;20109;-75
2022/09/12 07:58:27;;;;;;;8.93;6.65;;;14.10;99.90;;;;;;5129972;27;20054;-75
2022/09/12 08:00:53;;;;;;;6.90;5.85;;;14.20;99.90;;;;;;5129573;27;20019;-75
2022/09/12 08:03:18;;;;;;;6.97;5.47;;;14.30;99.90;;;;;;5105607;27;20023;-75
2022/09/12 08:05:44;;;;;;;9.20;5.80;;;14.30;99.90;;;;;;5129068;27;20034;-75
2022/09/12 08:08:09;;;;;;;12.60;6.43;;;14.40;99.90;;;;;;5118305;27;20483;-75
2022/09/12 08:10:35;;;;;;;6.35;5.72;;;14.60;99.90;;;;;;5126699;27;20368;-75
2022/09/12 08:13:02;;;;;;;6.32;5.78;;;14.60;99.90;;;;;;5128644;27;20031;-75
2022/09/12 08:15:28;;;;;;;6.43;5.82;;;14.70;99.90;;;;;;5124371;27;20380;-74
2022/09/12 08:17:54;;;;;;;8.68;7.82;;;14.80;99.90;;;;;;5128496;27;20034;-75
2022/09/12 08:20:20;;;;;;;7.60;6.90;;;14.90;99.90;;;;;;5116752;27;20092;-75
2022/09/12 08:22:45;;;;;;;7.65;6.55;;;15.00;99.90;;;;;;5110529;27;20026;-75
2022/09/12 08:25:11;;;;;;;7.22;6.47;;;15.10;99.90;;;;;;5136763;27;20710;-75
2022/09/12 08:27:36;;;;;;;6.63;5.93;;;15.20;99.90;;;;;;5121242;27;20097;-75
2022/09/12 08:30:04;;;;;;;7.10;6.10;;;15.30;99.90;;;;;;5130537;27;20109;-76
2022/09/12 08:32:30;;;;;;;6.93;6.22;;;15.40;99.90;;;;;;5144949;27;20019;-75
2022/09/12 08:34:56;;;;;;;8.68;6.45;;;15.50;99.90;;;;;;5126551;27;20682;-75
2022/09/12 08:37:22;;;;;;;7.60;6.90;;;15.50;99.90;;;;;;5113106;27;20042;-74
2022/09/12 08:39:47;;;;;;;8.38;6.93;;;15.50;99.90;;;;;;5122090;27;20039;-75
2022/09/12 08:42:32;;;;;;;6.90;6.20;;;15.50;99.90;;;;;;5121892;27;20050;-75
2022/09/12 08:45:10;;;;;;;7.10;6.40;;;15.60;99.90;;;;;;5108476;27;20267;-75
2022/09/12 08:47:40;;;;;;;7.53;6.72;;;15.60;99.90;;;;;;5142296;27;20030;-75
2022/09/12 08:50:08;;;;;;;7.07;6.38;;;15.60;99.90;;;;;;5126897;27;20026;-74
2022/09/12 08:52:52;;;;;;;7.80;7.00;;;15.80;99.90;;;;;;5112719;27;20027;-75
2022/09/12 08:55:31;;;;;;;;;;;15.90;99.90;;;;;;5103677;28;20015;-75
2022/09/12 08:58:09;;;;;;;7.97;6.47;;;16.10;99.90;;;;;;5136754;27;19933;-75
2022/09/12 09:00:47;;;;;;;7.22;6.53;;;16.10;99.90;;;;;;5112272;27;20032;-75
2022/09/12 09:03:37;;;;;;;7.72;6.93;;;16.20;99.90;;;;;;5105661;27;20105;-75
2022/09/12 09:06:42;;;;;;;10.15;7.35;;;16.40;99.90;;;;;;5126057;27;20032;-75
2022/09/12 09:09:30;;;;;;;8.00;7.30;;;16.50;99.90;;;;;;5102050;27;20043;-75
2022/09/12 09:12:06;;;;;;;8.32;7.45;;;16.60;99.90;;;;;;5123841;27;20033;-76
2022/09/12 09:14:55;;;;;;;6.82;6.22;;;16.80;99.90;;;;;;5104994;28;20123;-75
2022/09/12 09:17:36;;;;;;;8.15;7.28;;;17.00;99.90;;;;;;5123737;27;20486;-75
2022/09/12 09:20:43;;;;;;;7.82;7.03;;;17.20;99.90;;;;;;5114043;27;20712;-75
2022/09/12 09:23:20;;;;;;;8.45;6.80;;;17.40;99.90;;;;;;5111760;27;20436;-74
2022/09/12 09:26:00;;;;;;;7.88;6.30;;;17.50;99.90;;;;;;5125282;27;20123;-75
2022/09/12 09:29:04;;;;;;;8.68;6.90;;;17.60;99.90;;;;;;5099091;27;20120;-75
2022/09/12 09:31:34;;;;;;;8.00;6.85;;;17.80;99.90;;;;;;5075410;28;20031;-76
2022/09/12 09:34:00;;;;;;;7.28;6.57;;;18.00;99.90;;;;;;5106264;27;20027;-73
2022/09/12 09:36:31;;;;;;;8.43;6.75;;;18.00;99.90;;;;;;5117289;27;20402;-73
2022/09/12 09:39:11;;;;;;;8.57;7.68;;;18.10;99.90;;;;;;5128964;27;20101;-73
2022/09/12 09:41:58;;;;;;;6.88;6.28;;;18.30;99.90;;;;;;5103761;27;20035;-73
2022/09/12 09:44:27;;;;;;;8.13;7.30;;;18.50;99.90;;;;;;5133910;27;20030;-73
2022/09/12 09:46:56;;;;;;;7.65;6.85;;;18.50;99.90;;;;;;5112186;27;20708;-73
2022/09/12 09:49:24;;;;;;;7.80;6.90;;;18.50;99.90;;;;;;5117091;27;20387;-73
2022/09/12 09:51:50;;;;;;;7.90;7.03;;;18.50;99.90;;;;;;5120713;27;20027;-73
2022/09/12 09:54:18;;;;;;;7.20;6.47;;;18.40;99.90;;;;;;5107326;27;20042;-73
2022/09/12 09:56:44;;;;;;;7.13;6.43;;;18.40;99.90;;;;;;5128613;27;20024;-72
2022/09/12 09:59:15;;;;;;;7.82;7.00;;;18.40;99.90;;;;;;5109508;27;20035;-72
2022/09/12 10:02:00;;;;;;;8.52;6.85;;;18.40;99.90;;;;;;5114080;27;20118;-72
2022/09/12 10:04:28;;;;;;;6.90;6.20;;;18.50;99.90;;;;;;5108863;27;20116;-72
2022/09/12 10:06:59;;;;;;;7.47;6.68;;;18.50;99.90;;;;;;5129252;27;20057;-72
2022/09/12 10:09:28;;;;;;;7.85;6.88;;;18.60;99.90;;;;;;5124804;27;20030;-72
2022/09/12 10:11:55;;;;;;;7.80;6.63;;;18.60;99.90;;;;;;5126601;27;20395;-72
2022/09/12 10:14:29;;;;;;;7.25;6.47;;;18.70;99.90;;;;;;5124813;27;20273;-72
2022/09/12 10:16:56;;;;;;;9.63;6.90;;;18.80;99.90;;;;;;5120886;27;20035;-72
2022/09/12 10:19:31;;;;;;;8.88;6.85;;;18.90;99.90;;;;;;5123467;27;20061;-72
2022/09/12 10:21:57;;;;;;;6.68;5.88;;;19.00;99.90;;;;;;5117075;27;20427;-72
2022/09/12 10:24:25;;;;;;;7.03;6.18;;;19.10;99.90;;;;;;5120812;27;20062;-72
2022/09/12 10:27:10;;;;;;;7.88;6.50;;;19.30;99.90;;;;;;5137530;27;20105;-73
2022/09/12 10:30:02;;;;;;;6.72;5.60;;;19.50;99.90;;;;;;5090561;27;20031;-73
2022/09/12 10:32:40;;;;;;;7.22;5.95;;;19.60;99.90;;;;;;5116345;27;20123;-72
2022/09/12 10:35:16;;;;;;;7.35;6.25;;;19.70;99.90;;;;;;5124149;27;20031;-73
2022/09/12 10:38:12;;;;;;;8.50;5.72;;;19.80;99.90;;;;;;5115110;27;20026;-73
2022/09/12 10:40:42;;;;;;;7.00;6.30;;;20.00;99.90;;;;;;5104137;28;20533;-73
2022/09/12 10:43:28;;;;;;;7.00;5.43;;;20.10;99.90;;;;;;5121983;27;20630;-73
2022/09/12 10:46:10;;;;;;;8.90;6.18;;;20.10;99.90;;;;;;5112730;27;20149;-73
2022/09/12 10:48:36;;;;;;;5.90;5.30;;;20.30;99.90;;;;;;5108649;27;20080;-73
2022/09/12 10:51:01;;;;;;;7.30;4.95;;;20.40;99.90;;;;;;5147630;27;20102;-73
2022/09/12 10:53:42;;;;;;;5.40;4.88;;;20.50;99.90;;;;;;5117896;27;20436;-73
2022/09/12 10:56:18;;;;;;;7.00;4.78;;;20.70;99.90;;;;;;5108687;27;20166;-73
2022/09/12 10:59:04;;;;;;;7.72;5.43;;;20.80;99.90;;;;;;5108801;27;20092;-72
2022/09/12 11:01:39;;;;;;;5.80;4.50;;;21.00;99.90;;;;;;5106568;27;20026;-73
2022/09/12 11:04:17;;;;;;;5.28;4.40;;;21.10;99.90;;;;;;5106077;28;20032;-73
2022/09/12 11:07:13;;;;;;;7.22;4.18;;;21.20;99.90;;;;;;5113433;27;20478;-73
2022/09/12 11:09:49;;;;;;;4.78;3.95;;;21.20;99.90;;;;;;5128328;27;20040;-72
2022/09/12 11:12:35;;;;;;;3.83;3.53;;;21.20;99.90;;;;;;5112110;27;20480;-72
2022/09/12 11:15:07;;;;;;;7.55;3.90;;;21.20;99.90;;;;;;5102860;27;20023;-73
2022/09/12 11:18:03;;;;;;;7.72;4.80;;;21.20;99.90;;;;;;5118872;27;20023;-73
2022/09/12 11:20:38;;;;;;;6.47;4.82;;;21.20;99.90;;;;;;5129028;27;20109;-72
2022/09/12 11:23:19;;;;;;;8.18;4.82;;;21.30;99.90;;;;;;5127176;27;20028;-73
2022/09/12 11:25:50;;;;;;;6.00;5.40;;;21.30;99.90;;;;;;5125747;27;20035;-73
2022/09/12 11:28:49;;;;;;;6.68;5.95;;;21.40;99.90;;;;;;5115763;27;20045;-73
2022/09/12 11:31:37;;;;;;;7.70;5.43;;;21.40;99.90;;;;;;5115442;27;20024;-73
2022/09/12 11:34:08;;;;;;;7.55;5.75;;;21.40;99.90;;;;;;5126502;27;20114;-73
2022/09/12 11:36:55;;;;;;;7.38;5.15;;;21.50;99.90;;;;;;5132098;27;20023;-73
2022/09/12 11:39:30;;;;;;;7.88;5.75;;;21.60;99.90;;;;;;5147617;27;20027;-73
2022/09/12 11:42:02;;;;;;;9.75;6.55;;;21.60;99.90;;;;;;5111860;27;20277;-73
2022/09/12 11:44:39;;;;;;;8.70;6.03;;;21.70;99.90;;;;;;5095588;27;20036;-73
2022/09/12 11:47:08;;;;;;;10.75;6.53;;;21.70;99.90;;;;;;5086978;28;20020;-73
2022/09/12 11:49:39;;;;;;;10.95;6.85;;;21.80;99.90;;;;;;5095811;27;20028;-74
2022/09/12 11:52:22;;;;;;;9.32;7.32;;;22.00;99.90;;;;;;5105832;27;20052;-74
2022/09/12 11:55:20;;;;;;;14.93;9.20;;;22.10;99.90;;;;;;5087209;28;20020;-73
2022/09/12 11:57:53;;;;;;;12.05;6.95;;;22.00;99.90;;;;;;5106275;27;20555;-73
2022/09/12 12:00:20;;;;;;;12.20;6.90;;;22.00;99.90;;;;;;5103635;27;20044;-74
2022/09/12 12:03:07;;;;;;;9.10;7.28;;;22.00;99.90;;;;;;4735934;27;9999946;-74
2022/09/12 12:05:50;;;;;;;11.25;7.82;;;21.90;99.90;;;;;;5103756;27;20031;-74
2022/09/12 12:08:17;;;;;;;14.40;7.97;;;21.80;99.90;;;;;;5103047;28;20020;-75
2022/09/12 12:10:55;;;;;;;12.70;7.28;;;21.70;99.90;;;;;;5114475;27;20039;-75
2022/09/12 12:13:24;;;;;;;10.35;7.97;;;21.60;99.90;;;;;;5107836;27;20036;-75
2022/09/12 12:15:57;;;;;;;11.13;7.70;;;21.60;99.90;;;;;;5109625;27;20046;-75
2022/09/12 12:18:25;;;;;;;10.73;7.78;;;21.70;99.90;;;;;;5092056;27;20718;-74
2022/09/12 12:20:53;;;;;;;11.50;8.30;;;21.70;99.90;;;;;;5122789;27;20399;-74
2022/09/12 12:23:30;;;;;;;11.10;7.40;;;21.90;99.90;;;;;;5087546;27;20031;-74
2022/09/12 12:25:58;;;;;;;10.48;7.70;;;22.00;99.90;;;;;;5110230;27;20116;-74
2022/09/12 12:28:49;;;;;;;14.60;9.50;;;22.10;99.90;;;;;;5110021;27;20019;-73
2022/09/12 12:31:15;;;;;;;12.07;8.38;;;22.00;99.90;;;;;;5083371;27;20680;-73
2022/09/12 12:33:44;;;;;;;10.55;7.57;;;21.90;99.90;;;;;;5093717;27;20531;-73
2022/09/12 12:36:32;;;;;;;13.38;8.38;;;21.80;99.90;;;;;;5112399;27;20023;-73
2022/09/12 12:38:58;;;;;;;11.77;7.55;;;21.70;99.90;;;;;;5105874;27;20027;-74
2022/09/12 12:41:24;;;;;;;11.10;7.22;;;21.70;99.90;;;;;;5113356;27;20046;-74
2022/09/12 12:43:51;;;;;;;9.05;6.65;;;21.70;99.90;;;;;;5117279;27;20023;-74
2022/09/12 12:46:18;;;;;;;13.15;9.38;;;21.70;99.90;;;;;;5124124;27;20026;-73
2022/09/12 12:49:07;;;;;;;14.95;8.80;;;21.70;99.90;;;;;;5113857;27;20106;-74
2022/09/12 12:52:00;;;;;;;13.35;8.82;;;21.70;99.90;;;;;;5107389;27;20087;-74
2022/09/12 12:54:44;;;;;;;10.40;7.05;;;21.80;99.90;;;;;;5112238;27;20045;-74
2022/09/12 12:57:12;;;;;;;9.77;6.97;;;22.00;99.90;;;;;;5114114;27;20064;-73
2022/09/12 12:59:47;;;;;;;11.13;7.68;;;22.10;99.90;;;;;;5112041;27;20035;-74
2022/09/12 13:02:35;;;;;;;12.63;7.57;;;22.30;99.90;;;;;;5116340;27;20043;-74
2022/09/12 13:05:05;;;;;;;6.55;5.10;;;22.60;99.90;;;;;;5133312;27;20251;-74
2022/09/12 13:07:36;;;;;;;7.68;5.38;;;22.80;99.90;;;;;;5127200;27;20109;-74
2022/09/12 13:10:05;;;;;;;7.15;5.45;;;22.80;99.90;;;;;;5118124;27;20084;-75